sensor_id;sensor_type;location;lat;lon;timestamp;pressure;altitude;pressure_sealevel;temperature;humidity
55671;BME280;41551;47.500;8.408;2022-08-04T00:01:24;96100.22;;;20.80;81.39
55671;BME280;41551;47.500;8.408;2022-08-04T00:04:00;96098.66;;;20.87;81.21
55671;BME280;41551;47.500;8.408;2022-08-04T00:06:34;96096.13;;;20.82;80.83
55671;BME280;41551;47.500;8.408;2022-08-04T00:09:09;96103.38;;;20.73;81.18
55671;BME280;41551;47.500;8.408;2022-08-04T00:11:44;96102.69;;;20.58;82.23
55671;BME280;41551;47.500;8.408;2022-08-04T00:14:13;96099.88;;;20.64;85.02
55671;BME280;41551;47.500;8.408;2022-08-04T00:16:42;96094.84;;;20.62;86.56
55671;BME280;41551;47.500;8.408;2022-08-04T00:19:10;96103.09;;;20.83;83.48
55671;BME280;41551;47.500;8.408;2022-08-04T00:21:38;96111.25;;;20.78;82.08
55671;BME280;41551;47.500;8.408;2022-08-04T00:24:09;96110.78;;;20.67;82.10
55671;BME280;41551;47.500;8.408;2022-08-04T00:26:37;96107.16;;;20.72;82.56
55671;BME280;41551;47.500;8.408;2022-08-04T00:29:06;96102.69;;;20.58;83.57
55671;BME280;41551;47.500;8.408;2022-08-04T00:31:33;96099.50;;;20.39;85.62
55671;BME280;41551;47.500;8.408;2022-08-04T00:34:00;96104.66;;;20.18;89.24
55671;BME280;41551;47.500;8.408;2022-08-04T00:36:28;96103.09;;;20.17;89.08
55671;BME280;41551;47.500;8.408;2022-08-04T00:38:55;96103.41;;;20.24;87.13
55671;BME280;41551;47.500;8.408;2022-08-04T00:41:30;96101.69;;;20.19;86.70
55671;BME280;41551;47.500;8.408;2022-08-04T00:44:16;96101.59;;;20.02;88.66
55671;BME280;41551;47.500;8.408;2022-08-04T00:47:00;96101.59;;;20.02;89.46
55671;BME280;41551;47.500;8.408;2022-08-04T00:49:54;96098.94;;;20.02;90.27
55671;BME280;41551;47.500;8.408;2022-08-04T00:52:36;96101.44;;;20.07;90.44
55671;BME280;41551;47.500;8.408;2022-08-04T00:55:30;96100.22;;;20.04;88.07
55671;BME280;41551;47.500;8.408;2022-08-04T01:01:00;96100.47;;;19.94;88.44
55671;BME280;41551;47.500;8.408;2022-08-04T01:03:48;96094.47;;;19.88;88.86
55671;BME280;41551;47.500;8.408;2022-08-04T01:06:23;96095.00;;;19.77;89.80
55671;BME280;41551;47.500;8.408;2022-08-04T01:09:05;96098.75;;;19.67;91.27
55671;BME280;41551;47.500;8.408;2022-08-04T01:11:44;96098.44;;;19.68;92.32
55671;BME280;41551;47.500;8.408;2022-08-04T01:14:28;96103.00;;;19.68;92.09
55671;BME280;41551;47.500;8.408;2022-08-04T01:17:06;96101.97;;;19.78;91.78
55671;BME280;41551;47.500;8.408;2022-08-04T01:19:53;96100.75;;;19.84;90.66
55671;BME280;41551;47.500;8.408;2022-08-04T01:22:59;96108.75;;;19.84;91.06
55671;BME280;41551;47.500;8.408;2022-08-04T01:28:54;96114.81;;;19.98;90.07
55671;BME280;41551;47.500;8.408;2022-08-04T01:31:26;96104.22;;;19.84;91.75
55671;BME280;41551;47.500;8.408;2022-08-04T01:33:59;96094.72;;;19.78;92.29
55671;BME280;41551;47.500;8.408;2022-08-04T01:36:33;96097.97;;;19.75;91.71
55671;BME280;41551;47.500;8.408;2022-08-04T01:39:03;96090.56;;;19.63;92.06
55671;BME280;41551;47.500;8.408;2022-08-04T01:41:51;96102.47;;;19.57;92.68
55671;BME280;41551;47.500;8.408;2022-08-04T01:44:20;96089.81;;;19.49;93.33
55671;BME280;41551;47.500;8.408;2022-08-04T01:46:49;96089.28;;;19.38;93.87
55671;BME280;41551;47.500;8.408;2022-08-04T01:49:20;96089.91;;;19.35;94.30
55671;BME280;41551;47.500;8.408;2022-08-04T01:51:49;96099.63;;;19.31;94.13
55671;BME280;41551;47.500;8.408;2022-08-04T01:54:17;96101.66;;;19.25;94.95
55671;BME280;41551;47.500;8.408;2022-08-04T01:56:45;96099.59;;;19.22;94.61
55671;BME280;41551;47.500;8.408;2022-08-04T01:59:16;96097.69;;;19.23;94.52
55671;BME280;41551;47.500;8.408;2022-08-04T02:01:45;96102.06;;;19.18;95.05
55671;BME280;41551;47.500;8.408;2022-08-04T02:04:17;96100.13;;;19.10;96.76
55671;BME280;41551;47.500;8.408;2022-08-04T02:06:50;96099.56;;;18.99;97.63
55671;BME280;41551;47.500;8.408;2022-08-04T02:09:22;96097.00;;;18.94;98.39
55671;BME280;41551;47.500;8.408;2022-08-04T02:12:01;96094.72;;;19.02;98.18
55671;BME280;41551;47.500;8.408;2022-08-04T02:14:34;96094.88;;;19.05;98.02
55671;BME280;41551;47.500;8.408;2022-08-04T02:17:15;96105.47;;;19.10;97.18
55671;BME280;41551;47.500;8.408;2022-08-04T02:20:05;96094.78;;;19.10;96.35
55671;BME280;41551;47.500;8.408;2022-08-04T02:22:34;96094.16;;;19.13;97.43
55671;BME280;41551;47.500;8.408;2022-08-04T02:25:07;96096.47;;;19.06;97.35
55671;BME280;41551;47.500;8.408;2022-08-04T02:27:53;96100.06;;;19.02;97.21
55671;BME280;41551;47.500;8.408;2022-08-04T02:30:21;96095.00;;;19.00;97.85
55671;BME280;41551;47.500;8.408;2022-08-04T02:32:58;96085.69;;;18.97;97.86
55671;BME280;41551;47.500;8.408;2022-08-04T02:35:28;96092.94;;;18.97;98.16
55671;BME280;41551;47.500;8.408;2022-08-04T02:38:05;96095.44;;;18.93;98.49
55671;BME280;41551;47.500;8.408;2022-08-04T02:40:38;96085.94;;;18.87;98.22
55671;BME280;41551;47.500;8.408;2022-08-04T02:43:07;96086.50;;;18.84;98.42
55671;BME280;41551;47.500;8.408;2022-08-04T02:45:35;96086.31;;;18.80;99.34
55671;BME280;41551;47.500;8.408;2022-08-04T02:48:04;96090.69;;;18.76;98.56
55671;BME280;41551;47.500;8.408;2022-08-04T02:50:34;96089.72;;;18.72;99.33
55671;BME280;41551;47.500;8.408;2022-08-04T02:53:03;96090.94;;;18.66;99.54
55671;BME280;41551;47.500;8.408;2022-08-04T02:55:32;96092.50;;;18.67;99.20
55671;BME280;41551;47.500;8.408;2022-08-04T02:58:01;96090.94;;;18.66;99.94
55671;BME280;41551;47.500;8.408;2022-08-04T03:00:29;96092.13;;;18.60;100.00
55671;BME280;41551;47.500;8.408;2022-08-04T03:03:02;96101.31;;;18.54;100.00
55671;BME280;41551;47.500;8.408;2022-08-04T03:05:46;96091.75;;;18.53;100.00
55671;BME280;41551;47.500;8.408;2022-08-04T03:08:50;96095.69;;;18.55;100.00
55671;BME280;41551;47.500;8.408;2022-08-04T03:11:50;96085.00;;;18.69;100.00
55671;BME280;41551;47.500;8.408;2022-08-04T03:14:47;96093.75;;;18.83;100.00
55671;BME280;41551;47.500;8.408;2022-08-04T03:20:49;96088.91;;;18.72;100.00
55671;BME280;41551;47.500;8.408;2022-08-04T03:23:53;96098.44;;;18.64;100.00
55671;BME280;41551;47.500;8.408;2022-08-04T03:26:47;96090.72;;;18.62;100.00
55671;BME280;41551;47.500;8.408;2022-08-04T03:29:42;96093.91;;;18.51;100.00
55671;BME280;41551;47.500;8.408;2022-08-04T03:41:57;96099.75;;;18.25;100.00
55671;BME280;41551;47.500;8.408;2022-08-04T03:44:55;96100.88;;;18.24;100.00
55671;BME280;41551;47.500;8.408;2022-08-04T03:47:46;96101.97;;;18.23;100.00
55671;BME280;41551;47.500;8.408;2022-08-04T03:53:44;96100.28;;;18.27;100.00
55671;BME280;41551;47.500;8.408;2022-08-04T03:57:01;96095.94;;;18.31;100.00
55671;BME280;41551;47.500;8.408;2022-08-04T03:59:48;96103.41;;;18.43;100.00
55671;BME280;41551;47.500;8.408;2022-08-04T04:02:40;96095.53;;;18.24;100.00
55671;BME280;41551;47.500;8.408;2022-08-04T04:05:32;96100.97;;;18.19;100.00
55671;BME280;41551;47.500;8.408;2022-08-04T04:11:43;96107.78;;;18.25;100.00
55671;BME280;41551;47.500;8.408;2022-08-04T04:14:41;96112.72;;;18.32;100.00
55671;BME280;41551;47.500;8.408;2022-08-04T04:17:27;96108.78;;;18.29;100.00
55671;BME280;41551;47.500;8.408;2022-08-04T04:20:20;96109.25;;;18.17;100.00
55671;BME280;41551;47.500;8.408;2022-08-04T04:23:09;96117.69;;;18.10;100.00
55671;BME280;41551;47.500;8.408;2022-08-04T04:25:53;96116.19;;;18.04;100.00
55671;BME280;41551;47.500;8.408;2022-08-04T04:31:55;96113.22;;;18.20;100.00
55671;BME280;41551;47.500;8.408;2022-08-04T04:34:37;96119.56;;;18.24;100.00
55671;BME280;41551;47.500;8.408;2022-08-04T04:37:16;96115.41;;;18.18;100.00
55671;BME280;41551;47.500;8.408;2022-08-04T04:39:54;96128.34;;;18.10;100.00
55671;BME280;41551;47.500;8.408;2022-08-04T04:42:37;96128.53;;;18.00;100.00
55671;BME280;41551;47.500;8.408;2022-08-04T04:45:19;96134.06;;;17.90;100.00
55671;BME280;41551;47.500;8.408;2022-08-04T04:47:58;96136.47;;;18.05;100.00
55671;BME280;41551;47.500;8.408;2022-08-04T04:50:35;96136.47;;;18.05;100.00
55671;BME280;41551;47.500;8.408;2022-08-04T04:53:12;96141.28;;;18.03;100.00
55671;BME280;41551;47.500;8.408;2022-08-04T04:55:46;96129.94;;;17.98;100.00
55671;BME280;41551;47.500;8.408;2022-08-04T04:58:17;96144.19;;;18.07;100.00
55671;BME280;41551;47.500;8.408;2022-08-04T05:01:03;96137.53;;;18.32;100.00
55671;BME280;41551;47.500;8.408;2022-08-04T05:03:48;96141.91;;;18.42;100.00
55671;BME280;41551;47.500;8.408;2022-08-04T05:06:31;96133.47;;;18.49;100.00
55671;BME280;41551;47.500;8.408;2022-08-04T05:09:26;96131.22;;;18.56;100.00
55671;BME280;41551;47.500;8.408;2022-08-04T05:12:25;96133.47;;;18.62;100.00
55671;BME280;41551;47.500;8.408;2022-08-04T05:14:57;96135.31;;;18.76;100.00
55671;BME280;41551;47.500;8.408;2022-08-04T05:17:27;96138.78;;;18.90;100.00
55671;BME280;41551;47.500;8.408;2022-08-04T05:20:00;96147.84;;;19.03;100.00
55671;BME280;41551;47.500;8.408;2022-08-04T05:22:31;96139.00;;;19.16;100.00
55671;BME280;41551;47.500;8.408;2022-08-04T05:25:05;96150.94;;;19.33;100.00
55671;BME280;41551;47.500;8.408;2022-08-04T05:27:37;96138.88;;;19.44;99.86
55671;BME280;41551;47.500;8.408;2022-08-04T05:30:06;96147.81;;;19.62;98.67
55671;BME280;41551;47.500;8.408;2022-08-04T05:32:42;96147.63;;;19.81;98.22
55671;BME280;41551;47.500;8.408;2022-08-04T05:35:16;96144.94;;;19.81;97.55
55671;BME280;41551;47.500;8.408;2022-08-04T05:37:46;96147.38;;;19.92;96.25
55671;BME280;41551;47.500;8.408;2022-08-04T05:40:18;96150.41;;;19.99;95.89
55671;BME280;41551;47.500;8.408;2022-08-04T05:42:45;96150.00;;;20.14;95.90
55671;BME280;41551;47.500;8.408;2022-08-04T05:45:13;96153.81;;;20.22;95.73
55671;BME280;41551;47.500;8.408;2022-08-04T05:47:40;96148.34;;;20.36;95.37
55671;BME280;41551;47.500;8.408;2022-08-04T05:50:08;96153.59;;;20.50;94.69
55671;BME280;41551;47.500;8.408;2022-08-04T05:52:37;96153.91;;;20.57;94.48
55671;BME280;41551;47.500;8.408;2022-08-04T05:55:05;96156.66;;;20.66;93.67
55671;BME280;41551;47.500;8.408;2022-08-04T05:57:33;96152.59;;;20.77;93.58
55671;BME280;41551;47.500;8.408;2022-08-04T06:00:04;96153.84;;;20.88;92.91
55671;BME280;41551;47.500;8.408;2022-08-04T06:02:33;96158.00;;;21.12;90.56
55671;BME280;41551;47.500;8.408;2022-08-04T06:05:01;96158.91;;;21.16;89.66
55671;BME280;41551;47.500;8.408;2022-08-04T06:07:29;96150.09;;;21.24;87.47
55671;BME280;41551;47.500;8.408;2022-08-04T06:09:59;96156.56;;;21.41;87.18
55671;BME280;41551;47.500;8.408;2022-08-04T06:12:30;96150.06;;;21.42;86.69
55671;BME280;41551;47.500;8.408;2022-08-04T06:14:59;96154.38;;;21.52;84.85
55671;BME280;41551;47.500;8.408;2022-08-04T06:17:30;96155.91;;;21.61;84.34
55671;BME280;41551;47.500;8.408;2022-08-04T06:19:58;96148.00;;;21.74;83.13
55671;BME280;41551;47.500;8.408;2022-08-04T06:22:28;96149.25;;;21.85;82.46
55671;BME280;41551;47.500;8.408;2022-08-04T06:24:58;96144.94;;;22.02;81.24
55671;BME280;41551;47.500;8.408;2022-08-04T06:27:27;96146.16;;;22.13;80.33
55671;BME280;41551;47.500;8.408;2022-08-04T06:29:56;96144.03;;;22.27;78.26
55671;BME280;41551;47.500;8.408;2022-08-04T06:32:25;96143.06;;;22.41;77.96
55671;BME280;41551;47.500;8.408;2022-08-04T06:35:02;96138.41;;;22.50;78.26
55671;BME280;41551;47.500;8.408;2022-08-04T06:37:31;96141.47;;;22.69;77.40
55671;BME280;41551;47.500;8.408;2022-08-04T06:40:00;96139.00;;;22.85;76.45
55671;BME280;41551;47.500;8.408;2022-08-04T06:42:28;96137.22;;;22.89;75.29
55671;BME280;41551;47.500;8.408;2022-08-04T06:44:57;96145.19;;;23.07;74.47
55671;BME280;41551;47.500;8.408;2022-08-04T06:47:25;96138.78;;;23.20;74.14
55671;BME280;41551;47.500;8.408;2022-08-04T06:49:54;96143.88;;;23.34;73.38
55671;BME280;41551;47.500;8.408;2022-08-04T06:52:22;96143.91;;;23.47;72.88
55671;BME280;41551;47.500;8.408;2022-08-04T06:54:50;96151.59;;;23.57;71.92
55671;BME280;41551;47.500;8.408;2022-08-04T06:57:20;96148.59;;;23.71;71.30
55671;BME280;41551;47.500;8.408;2022-08-04T06:59:50;96155.69;;;23.75;70.31
55671;BME280;41551;47.500;8.408;2022-08-04T07:02:22;96158.00;;;23.86;69.83
55671;BME280;41551;47.500;8.408;2022-08-04T07:04:49;96154.22;;;23.99;69.30
55671;BME280;41551;47.500;8.408;2022-08-04T07:07:16;96152.97;;;24.09;69.01
55671;BME280;41551;47.500;8.408;2022-08-04T07:09:44;96153.31;;;24.20;68.60
55671;BME280;41551;47.500;8.408;2022-08-04T07:12:11;96148.16;;;24.27;68.58
55671;BME280;41551;47.500;8.408;2022-08-04T07:14:41;96156.03;;;24.32;68.52
55671;BME280;41551;47.500;8.408;2022-08-04T07:17:08;96152.44;;;24.40;67.38
55671;BME280;41551;47.500;8.408;2022-08-04T07:19:36;96151.13;;;24.59;65.37
55671;BME280;41551;47.500;8.408;2022-08-04T07:22:04;96156.47;;;24.83;62.93
55671;BME280;41551;47.500;8.408;2022-08-04T07:24:33;96153.09;;;24.87;62.32
55671;BME280;41551;47.500;8.408;2022-08-04T07:27:01;96157.16;;;24.80;62.99
55671;BME280;41551;47.500;8.408;2022-08-04T07:29:28;96156.91;;;24.98;61.25
55671;BME280;41551;47.500;8.408;2022-08-04T07:31:57;96153.31;;;24.94;60.72
55671;BME280;41551;47.500;8.408;2022-08-04T07:34:25;96152.38;;;25.02;59.72
55671;BME280;41551;47.500;8.408;2022-08-04T07:36:54;96149.78;;;25.18;58.70
55671;BME280;41551;47.500;8.408;2022-08-04T07:39:23;96147.34;;;25.41;57.73
55671;BME280;41551;47.500;8.408;2022-08-04T07:41:50;96146.19;;;25.54;57.21
55671;BME280;41551;47.500;8.408;2022-08-04T07:44:18;96140.72;;;25.67;56.85
55671;BME280;41551;47.500;8.408;2022-08-04T07:46:45;96149.44;;;25.76;55.53
55671;BME280;41551;47.500;8.408;2022-08-04T07:49:13;96143.38;;;25.95;54.97
55671;BME280;41551;47.500;8.408;2022-08-04T07:51:40;96139.31;;;26.01;54.18
55671;BME280;41551;47.500;8.408;2022-08-04T07:54:08;96145.06;;;26.00;54.49
55671;BME280;41551;47.500;8.408;2022-08-04T07:56:37;96140.09;;;26.02;54.18
55671;BME280;41551;47.500;8.408;2022-08-04T07:59:05;96148.38;;;26.09;54.07
55671;BME280;41551;47.500;8.408;2022-08-04T08:01:33;96143.75;;;26.10;53.87
55671;BME280;41551;47.500;8.408;2022-08-04T08:04:04;96144.28;;;26.15;53.60
55671;BME280;41551;47.500;8.408;2022-08-04T08:06:34;96151.97;;;26.29;53.90
55671;BME280;41551;47.500;8.408;2022-08-04T08:09:06;96149.50;;;26.40;53.63
55671;BME280;41551;47.500;8.408;2022-08-04T08:11:33;96150.19;;;26.53;52.83
55671;BME280;41551;47.500;8.408;2022-08-04T08:14:01;96143.22;;;26.52;53.57
55671;BME280;41551;47.500;8.408;2022-08-04T08:16:28;96146.88;;;26.59;52.71
55671;BME280;41551;47.500;8.408;2022-08-04T08:18:55;96139.72;;;26.67;52.68
55671;BME280;41551;47.500;8.408;2022-08-04T08:21:22;96135.78;;;26.81;51.99
55671;BME280;41551;47.500;8.408;2022-08-04T08:23:50;96144.41;;;26.86;52.03
55671;BME280;41551;47.500;8.408;2022-08-04T08:26:17;96145.84;;;27.00;51.69
55671;BME280;41551;47.500;8.408;2022-08-04T08:28:44;96142.44;;;27.22;50.63
55671;BME280;41551;47.500;8.408;2022-08-04T08:31:11;96142.44;;;27.22;50.67
55671;BME280;41551;47.500;8.408;2022-08-04T08:33:38;96139.34;;;27.40;49.86
55671;BME280;41551;47.500;8.408;2022-08-04T08:36:10;96138.06;;;27.34;50.09
55671;BME280;41551;47.500;8.408;2022-08-04T08:38:44;96136.16;;;27.57;50.14
55671;BME280;41551;47.500;8.408;2022-08-04T08:41:39;96136.09;;;27.73;49.52
55671;BME280;41551;47.500;8.408;2022-08-04T08:44:28;96136.03;;;27.70;48.14
55671;BME280;41551;47.500;8.408;2022-08-04T08:47:06;96143.34;;;27.69;48.45
55671;BME280;41551;47.500;8.408;2022-08-04T08:49:46;96134.56;;;27.95;47.10
55671;BME280;41551;47.500;8.408;2022-08-04T08:52:31;96138.56;;;28.02;46.97
55671;BME280;41551;47.500;8.408;2022-08-04T08:55:17;96140.69;;;27.92;47.47
55671;BME280;41551;47.500;8.408;2022-08-04T08:58:00;96131.28;;;27.86;48.34
55671;BME280;41551;47.500;8.408;2022-08-04T09:00:41;96131.25;;;28.29;47.15
55671;BME280;41551;47.500;8.408;2022-08-04T09:03:31;96131.22;;;28.52;45.54
55671;BME280;41551;47.500;8.408;2022-08-04T09:09:20;96130.53;;;28.32;45.78
55671;BME280;41551;47.500;8.408;2022-08-04T09:12:00;96137.22;;;28.38;45.43
55671;BME280;41551;47.500;8.408;2022-08-04T09:14:38;96138.16;;;28.49;44.57
55671;BME280;41551;47.500;8.408;2022-08-04T09:17:15;96124.88;;;28.67;44.08
55671;BME280;41551;47.500;8.408;2022-08-04T09:19:50;96131.66;;;28.81;43.17
55671;BME280;41551;47.500;8.408;2022-08-04T09:22:23;96139.59;;;28.97;42.67
55671;BME280;41551;47.500;8.408;2022-08-04T09:24:56;96135.38;;;28.99;42.08
55671;BME280;41551;47.500;8.408;2022-08-04T09:27:30;96123.81;;;29.06;42.56
55671;BME280;41551;47.500;8.408;2022-08-04T09:30:04;96138.97;;;29.07;43.27
55671;BME280;41551;47.500;8.408;2022-08-04T09:32:46;96131.69;;;29.15;42.14
55671;BME280;41551;47.500;8.408;2022-08-04T09:35:27;96141.66;;;29.03;42.74
55671;BME280;41551;47.500;8.408;2022-08-04T09:38:04;96138.81;;;29.23;42.02
55671;BME280;41551;47.500;8.408;2022-08-04T09:40:42;96144.28;;;29.27;41.78
55671;BME280;41551;47.500;8.408;2022-08-04T09:43:19;96140.94;;;29.10;42.44
55671;BME280;41551;47.500;8.408;2022-08-04T09:46:00;96137.19;;;29.18;42.31
55671;BME280;41551;47.500;8.408;2022-08-04T09:48:34;96134.63;;;29.29;41.31
55671;BME280;41551;47.500;8.408;2022-08-04T09:51:10;96126.06;;;29.61;40.59
55671;BME280;41551;47.500;8.408;2022-08-04T09:53:48;96135.88;;;29.35;41.67
55671;BME280;41551;47.500;8.408;2022-08-04T09:56:23;96140.56;;;29.38;41.05
55671;BME280;41551;47.500;8.408;2022-08-04T09:58:58;96129.56;;;29.28;40.83
55671;BME280;41551;47.500;8.408;2022-08-04T10:01:29;96131.81;;;29.22;41.57
55671;BME280;41551;47.500;8.408;2022-08-04T10:03:59;96124.00;;;29.51;40.67
55671;BME280;41551;47.500;8.408;2022-08-04T10:06:47;96120.91;;;29.52;41.12
55671;BME280;41551;47.500;8.408;2022-08-04T10:09:33;96125.31;;;29.64;41.01
55671;BME280;41551;47.500;8.408;2022-08-04T10:12:19;96124.34;;;29.46;40.51
55671;BME280;41551;47.500;8.408;2022-08-04T10:14:52;96126.97;;;29.38;40.05
55671;BME280;41551;47.500;8.408;2022-08-04T10:17:30;96114.44;;;29.64;40.17
55671;BME280;41551;47.500;8.408;2022-08-04T10:20:07;96114.91;;;29.73;40.21
55671;BME280;41551;47.500;8.408;2022-08-04T10:22:36;96109.31;;;29.97;37.32
55671;BME280;41551;47.500;8.408;2022-08-04T10:25:14;96120.19;;;29.93;36.27
55671;BME280;41551;47.500;8.408;2022-08-04T10:27:46;96106.69;;;29.66;37.22
55671;BME280;41551;47.500;8.408;2022-08-04T10:30:17;96104.66;;;29.97;36.33
55671;BME280;41551;47.500;8.408;2022-08-04T10:32:49;96106.09;;;30.32;35.77
55671;BME280;41551;47.500;8.408;2022-08-04T10:35:22;96107.84;;;30.55;35.55
55671;BME280;41551;47.500;8.408;2022-08-04T10:38:00;96101.25;;;30.56;34.99
55671;BME280;41551;47.500;8.408;2022-08-04T10:40:35;96098.22;;;30.68;35.10
55671;BME280;41551;47.500;8.408;2022-08-04T10:43:21;96097.50;;;30.78;34.49
55671;BME280;41551;47.500;8.408;2022-08-04T10:45:55;96094.59;;;30.50;35.49
55671;BME280;41551;47.500;8.408;2022-08-04T10:48:35;96090.69;;;30.43;34.88
55671;BME280;41551;47.500;8.408;2022-08-04T10:51:26;96089.56;;;30.52;34.69
55671;BME280;41551;47.500;8.408;2022-08-04T10:53:58;96095.16;;;30.77;34.24
55671;BME280;41551;47.500;8.408;2022-08-04T10:56:32;96097.13;;;30.83;33.82
55671;BME280;41551;47.500;8.408;2022-08-04T10:59:03;96090.91;;;30.83;34.14
55671;BME280;41551;47.500;8.408;2022-08-04T11:01:36;96079.88;;;30.58;34.79
55671;BME280;41551;47.500;8.408;2022-08-04T11:04:11;96090.78;;;30.61;34.80
55671;BME280;41551;47.500;8.408;2022-08-04T11:06:40;96081.94;;;30.75;34.24
55671;BME280;41551;47.500;8.408;2022-08-04T11:09:09;96074.34;;;31.10;34.18
55671;BME280;41551;47.500;8.408;2022-08-04T11:11:39;96070.38;;;31.00;34.47
55671;BME280;41551;47.500;8.408;2022-08-04T11:14:11;96081.66;;;30.98;35.20
55671;BME280;41551;47.500;8.408;2022-08-04T11:16:43;96082.91;;;31.15;34.45
55671;BME280;41551;47.500;8.408;2022-08-04T11:19:22;96078.25;;;31.23;34.99
55671;BME280;41551;47.500;8.408;2022-08-04T11:21:55;96082.56;;;31.31;33.82
55671;BME280;41551;47.500;8.408;2022-08-04T11:24:25;96077.50;;;31.30;33.99
55671;BME280;41551;47.500;8.408;2022-08-04T11:27:02;96069.38;;;31.37;33.60
55671;BME280;41551;47.500;8.408;2022-08-04T11:29:35;96070.16;;;31.48;33.65
55671;BME280;41551;47.500;8.408;2022-08-04T11:32:09;96068.97;;;31.46;33.84
55671;BME280;41551;47.500;8.408;2022-08-04T11:34:41;96071.25;;;31.29;34.04
55671;BME280;41551;47.500;8.408;2022-08-04T11:37:15;96068.59;;;31.40;32.71
55671;BME280;41551;47.500;8.408;2022-08-04T11:39:46;96065.06;;;31.40;33.15
55671;BME280;41551;47.500;8.408;2022-08-04T11:42:18;96065.47;;;31.45;33.01
55671;BME280;41551;47.500;8.408;2022-08-04T11:44:48;96069.44;;;31.66;33.62
55671;BME280;41551;47.500;8.408;2022-08-04T11:47:23;96069.03;;;31.64;33.42
55671;BME280;41551;47.500;8.408;2022-08-04T11:50:01;96063.59;;;31.64;33.40
55671;BME280;41551;47.500;8.408;2022-08-04T11:52:30;96069.81;;;31.68;33.17
55671;BME280;41551;47.500;8.408;2022-08-04T11:54:58;96076.06;;;31.86;32.65
55671;BME280;41551;47.500;8.408;2022-08-04T11:57:29;96073.72;;;31.88;32.78
55671;BME280;41551;47.500;8.408;2022-08-04T11:59:56;96069.06;;;31.85;32.98
55671;BME280;41551;47.500;8.408;2022-08-04T12:02:51;96058.16;;;31.82;33.28
55671;BME280;41551;47.500;8.408;2022-08-04T12:05:30;96055.03;;;31.76;32.89
55671;BME280;41551;47.500;8.408;2022-08-04T12:08:02;96058.16;;;31.89;32.38
55671;BME280;41551;47.500;8.408;2022-08-04T12:10:41;96058.53;;;31.84;32.62
55671;BME280;41551;47.500;8.408;2022-08-04T12:13:19;96060.50;;;31.91;32.55
55671;BME280;41551;47.500;8.408;2022-08-04T12:15:56;96062.81;;;31.96;32.48
55671;BME280;41551;47.500;8.408;2022-08-04T12:18:29;96050.75;;;31.89;32.76
55671;BME280;41551;47.500;8.408;2022-08-04T12:21:04;96055.81;;;31.87;32.80
55671;BME280;41551;47.500;8.408;2022-08-04T12:23:37;96056.59;;;32.06;31.16
55671;BME280;41551;47.500;8.408;2022-08-04T12:26:06;96045.28;;;32.08;31.11
55671;BME280;41551;47.500;8.408;2022-08-04T12:28:36;96053.47;;;32.00;31.15
55671;BME280;41551;47.500;8.408;2022-08-04T12:31:13;96035.16;;;32.04;32.04
55671;BME280;41551;47.500;8.408;2022-08-04T12:33:47;96045.69;;;32.02;31.75
55671;BME280;41551;47.500;8.408;2022-08-04T12:36:20;96037.50;;;31.95;32.19
55671;BME280;41551;47.500;8.408;2022-08-04T12:38:58;96038.66;;;32.05;31.11
55671;BME280;41551;47.500;8.408;2022-08-04T12:41:29;96029.34;;;32.17;30.68
55671;BME280;41551;47.500;8.408;2022-08-04T12:44:03;96033.97;;;32.45;30.12
55671;BME280;41551;47.500;8.408;2022-08-04T12:46:32;96022.28;;;32.34;30.25
55671;BME280;41551;47.500;8.408;2022-08-04T12:49:01;96021.47;;;32.51;30.73
55671;BME280;41551;47.500;8.408;2022-08-04T12:51:36;96026.50;;;32.56;30.61
55671;BME280;41551;47.500;8.408;2022-08-04T12:54:04;96030.03;;;32.68;30.42
55671;BME280;41551;47.500;8.408;2022-08-04T12:56:32;96025.00;;;32.41;31.55
55671;BME280;41551;47.500;8.408;2022-08-04T12:59:02;96028.53;;;32.31;30.97
55671;BME280;41551;47.500;8.408;2022-08-04T13:01:30;96026.94;;;32.51;30.64
55671;BME280;41551;47.500;8.408;2022-08-04T13:03:58;96022.63;;;32.54;30.49
55671;BME280;41551;47.500;8.408;2022-08-04T13:06:29;96022.19;;;32.63;31.11
55671;BME280;41551;47.500;8.408;2022-08-04T13:09:04;96008.16;;;32.64;30.52
55671;BME280;41551;47.500;8.408;2022-08-04T13:11:35;95998.00;;;32.79;30.27
55671;BME280;41551;47.500;8.408;2022-08-04T13:14:03;95990.91;;;32.92;30.20
55671;BME280;41551;47.500;8.408;2022-08-04T13:16:30;95995.53;;;33.06;30.40
55671;BME280;41551;47.500;8.408;2022-08-04T13:18:58;95993.88;;;33.16;29.98
55671;BME280;41551;47.500;8.408;2022-08-04T13:21:27;95982.13;;;33.34;29.59
55671;BME280;41551;47.500;8.408;2022-08-04T13:23:56;95982.88;;;33.38;29.84
55671;BME280;41551;47.500;8.408;2022-08-04T13:26:25;95974.59;;;33.49;29.81
55671;BME280;41551;47.500;8.408;2022-08-04T13:28:53;95973.34;;;33.60;29.56
55671;BME280;41551;47.500;8.408;2022-08-04T13:31:26;95980.28;;;33.69;29.61
55671;BME280;41551;47.500;8.408;2022-08-04T13:34:02;95969.88;;;34.02;28.35
55671;BME280;41551;47.500;8.408;2022-08-04T13:36:30;95971.38;;;34.06;28.55
55671;BME280;41551;47.500;8.408;2022-08-04T13:39:02;95972.31;;;33.92;29.15
55671;BME280;41551;47.500;8.408;2022-08-04T13:41:33;95964.31;;;34.09;28.06
55671;BME280;41551;47.500;8.408;2022-08-04T13:44:03;95964.53;;;34.29;27.35
55671;BME280;41551;47.500;8.408;2022-08-04T13:46:37;95963.72;;;34.32;27.55
55671;BME280;41551;47.500;8.408;2022-08-04T13:49:08;95968.00;;;34.33;27.54
55671;BME280;41551;47.500;8.408;2022-08-04T13:51:36;95963.13;;;34.48;27.07
55671;BME280;41551;47.500;8.408;2022-08-04T13:54:04;95961.59;;;34.47;26.69
55671;BME280;41551;47.500;8.408;2022-08-04T13:56:37;95968.13;;;34.57;26.45
55671;BME280;41551;47.500;8.408;2022-08-04T13:59:09;95966.16;;;34.57;26.11
55671;BME280;41551;47.500;8.408;2022-08-04T14:01:40;95953.09;;;34.38;26.62
55671;BME280;41551;47.500;8.408;2022-08-04T14:04:11;95959.22;;;34.49;26.28
55671;BME280;41551;47.500;8.408;2022-08-04T14:06:43;95954.22;;;34.75;25.67
55671;BME280;41551;47.500;8.408;2022-08-04T14:09:16;95946.38;;;34.77;26.23